Time;durP1;ratioP1;P1;durP2;ratioP2;P2;SDS_P1;SDS_P2;PMS_P1;PMS_P2;Temp;Humidity;BMP_temperature;BMP_pressure;BME280_temperature;BME280_humidity;BME280_pressure;Samples;Min_cycle;Max_cycle;Signal;HPM_P1;HPM_P2
2021/01/23 00:00:08;;;;;;;32.35;20.85;;;10.20;89.40;;;;;;5094424;28;20075;-70
2021/01/23 00:02:34;;;;;;;21.52;12.82;;;10.20;89.40;;;;;;5094545;28;20032;-69
2021/01/23 00:05:00;;;;;;;22.02;13.38;;;10.20;89.40;;;;;;5094181;28;20362;-70
2021/01/23 00:07:25;;;;;;;28.77;16.40;;;10.20;88.80;;;;;;5094450;28;20055;-71
2021/01/23 00:09:51;;;;;;;16.02;8.65;;;10.20;88.70;;;;;;5095672;28;20358;-71
2021/01/23 00:12:17;;;;;;;17.23;8.25;;;10.30;88.80;;;;;;5094116;28;20028;-71
2021/01/23 00:14:43;;;;;;;20.60;11.00;;;10.30;88.20;;;;;;5095909;28;20385;-69
2021/01/23 00:17:08;;;;;;;17.60;8.93;;;10.30;88.40;;;;;;5094281;28;20057;-69
2021/01/23 00:19:34;;;;;;;15.65;9.57;;;10.30;88.00;;;;;;5094962;28;20028;-69
2021/01/23 00:22:00;;;;;;;22.40;13.60;;;10.30;88.00;;;;;;5094794;28;20031;-69
2021/01/23 00:24:26;;;;;;;21.15;11.55;;;10.30;87.70;;;;;;5095313;28;20411;-70
2021/01/23 00:26:51;;;;;;;27.23;16.33;;;10.30;87.80;;;;;;5093826;28;20020;-69
2021/01/23 00:29:17;;;;;;;30.15;18.70;;;10.30;87.80;;;;;;5095387;28;20028;-71
2021/01/23 00:31:43;;;;;;;27.45;15.30;;;10.30;88.00;;;;;;5095133;28;20077;-69
2021/01/23 00:34:10;;;;;;;16.67;8.35;;;10.30;88.20;;;;;;5095486;28;20058;-70
2021/01/23 00:36:36;;;;;;;20.77;12.00;;;10.20;88.50;;;;;;5093932;28;20063;-71
2021/01/23 00:39:02;;;;;;;17.55;8.88;;;10.20;88.40;;;;;;5093559;28;20047;-71
2021/01/23 00:41:28;;;;;;;23.55;13.35;;;10.20;88.60;;;;;;5093781;28;20115;-69
2021/01/23 00:43:54;;;;;;;13.48;6.30;;;10.20;88.50;;;;;;5095136;28;20059;-71
2021/01/23 00:46:21;;;;;;;15.75;7.30;;;10.20;88.70;;;;;;5093440;28;20020;-70
2021/01/23 00:48:47;;;;;;;20.52;10.73;;;10.20;88.70;;;;;;5093940;28;20069;-68
2021/01/23 00:51:13;;;;;;;24.23;12.18;;;10.20;88.50;;;;;;5093541;28;20451;-72
2021/01/23 00:53:39;;;;;;;22.65;13.45;;;10.20;89.30;;;;;;5093238;28;20028;-70
2021/01/23 00:56:05;;;;;;;17.70;7.60;;;10.20;88.60;;;;;;5095113;28;20073;-71
2021/01/23 00:58:31;;;;;;;22.77;11.30;;;10.10;89.20;;;;;;5093511;28;20036;-69
2021/01/23 01:00:57;;;;;;;34.97;19.55;;;10.10;89.20;;;;;;5093106;28;20051;-70
2021/01/23 01:03:22;;;;;;;26.42;15.07;;;10.10;89.00;;;;;;5093401;28;20034;-69
2021/01/23 01:05:48;;;;;;;21.27;10.38;;;10.10;88.80;;;;;;5094634;28;20031;-71
2021/01/23 01:08:14;;;;;;;25.70;14.00;;;10.10;89.00;;;;;;5093242;28;20123;-71
2021/01/23 01:10:45;;;;;;;26.98;15.43;;;10.10;89.10;;;;;;5093273;28;20450;-71
2021/01/23 01:13:12;;;;;;;19.42;9.27;;;10.10;88.70;;;;;;5093918;28;20416;-70
2021/01/23 01:15:38;;;;;;;25.15;13.35;;;10.10;89.00;;;;;;5094244;28;20462;-71
2021/01/23 01:18:04;;;;;;;26.20;14.38;;;10.10;88.90;;;;;;5093170;28;20111;-69
2021/01/23 01:20:30;;;;;;;35.25;17.85;;;10.10;88.70;;;;;;5092827;28;20182;-69
2021/01/23 01:22:55;;;;;;;33.10;18.73;;;10.10;88.30;;;;;;5093412;28;20377;-68
2021/01/23 01:25:21;;;;;;;39.78;19.85;;;10.10;88.30;;;;;;5093005;28;20454;-69
2021/01/23 01:27:47;;;;;;;36.33;18.05;;;10.10;87.90;;;;;;5092648;28;20020;-71
2021/01/23 01:30:13;;;;;;;13.23;7.60;;;10.20;88.00;;;;;;5092895;28;20127;-70
2021/01/23 01:32:39;;;;;;;49.58;23.52;;;10.20;87.60;;;;;;5093793;28;20432;-73
2021/01/23 01:35:06;;;;;;;28.13;14.27;;;10.20;87.00;;;;;;5093916;28;20046;-69
2021/01/23 01:37:32;;;;;;;36.50;18.58;;;10.20;87.00;;;;;;5093589;28;20122;-70
2021/01/23 01:39:57;;;;;;;37.03;17.80;;;10.30;87.00;;;;;;5094380;28;20056;-70
2021/01/23 01:42:23;;;;;;;18.63;8.57;;;10.30;86.40;;;;;;5092637;28;20358;-71
2021/01/23 01:44:50;;;;;;;34.70;16.75;;;10.30;86.40;;;;;;5094015;28;20021;-71
2021/01/23 01:47:17;;;;;;;18.13;8.82;;;10.30;86.60;;;;;;5093302;28;20028;-70
2021/01/23 01:49:43;;;;;;;21.92;12.15;;;10.40;86.60;;;;;;5092232;28;20452;-73
2021/01/23 01:52:10;;;;;;;46.60;24.60;;;10.40;85.40;;;;;;5092500;28;20035;-70
2021/01/23 01:54:36;;;;;;;14.35;6.60;;;10.40;85.70;;;;;;5092945;28;20020;-72
2021/01/23 01:57:02;;;;;;;14.25;7.63;;;10.40;85.10;;;;;;5092298;28;20537;-73
2021/01/23 01:59:28;;;;;;;55.78;33.55;;;10.50;84.70;;;;;;5093749;28;20101;-71
2021/01/23 02:02:18;;;;;;;31.92;18.45;;;10.50;84.60;;;;;;5093799;28;20063;-70
2021/01/23 02:04:56;;;;;;;10.32;6.05;;;10.50;84.80;;;;;;5091761;28;20107;-70
2021/01/23 02:07:54;;;;;;;48.03;18.77;;;10.50;84.70;;;;;;5092309;28;20028;-71
2021/01/23 02:10:44;;;;;;;30.48;14.23;;;10.50;84.70;;;;;;5087760;28;20044;-70
2021/01/23 02:13:27;;;;;;;24.00;13.30;;;10.40;84.50;;;;;;5093853;28;20377;-69
2021/01/23 02:16:07;;;;;;;22.40;12.70;;;10.40;85.00;;;;;;5092440;28;20492;-70
2021/01/23 02:18:47;;;;;;;21.40;12.45;;;10.40;85.20;;;;;;5093142;28;20447;-69
2021/01/23 02:21:54;;;;;;;42.28;23.42;;;10.40;84.70;;;;;;5093723;28;20068;-69
2021/01/23 02:24:28;;;;;;;30.13;17.48;;;10.40;84.90;;;;;;5072216;28;20039;-70
2021/01/23 02:27:17;;;;;;;18.00;10.80;;;10.40;84.90;;;;;;5093428;28;20024;-69
2021/01/23 02:30:01;;;;;;;9.07;4.30;;;10.40;84.80;;;;;;5092321;28;20531;-69
2021/01/23 02:32:30;;;;;;;10.73;6.13;;;10.40;85.20;;;;;;5092124;28;20369;-69
2021/01/23 02:34:58;;;;;;;8.82;5.00;;;10.40;85.20;;;;;;5093541;28;20031;-69
2021/01/23 02:37:26;;;;;;;8.15;4.70;;;10.40;84.60;;;;;;5093541;28;20039;-70
2021/01/23 02:39:54;;;;;;;9.88;5.10;;;10.40;84.50;;;;;;5091884;28;20095;-71
2021/01/23 02:42:19;;;;;;;11.25;5.70;;;10.40;84.60;;;;;;5092226;28;20051;-72
2021/01/23 02:44:45;;;;;;;9.45;4.30;;;10.40;85.10;;;;;;5091832;28;20024;-70
2021/01/23 02:47:11;;;;;;;7.13;3.40;;;10.30;84.30;;;;;;5092105;28;20020;-71
2021/01/23 02:49:37;;;;;;;8.35;4.60;;;10.40;84.40;;;;;;5094469;28;20114;-72
2021/01/23 02:52:15;;;;;;;9.75;3.50;;;10.30;84.20;;;;;;5095691;28;20118;-70
2021/01/23 02:54:53;;;;;;;8.88;6.32;;;10.40;84.10;;;;;;5097304;28;20103;-70
2021/01/23 02:57:21;;;;;;;7.65;4.90;;;10.30;84.20;;;;;;5097247;28;20081;-71
2021/01/23 02:59:49;;;;;;;11.20;4.88;;;10.30;84.20;;;;;;5095671;28;20439;-71
2021/01/23 03:02:18;;;;;;;10.00;4.88;;;10.30;84.20;;;;;;5097298;28;20026;-70
2021/01/23 03:04:45;;;;;;;8.43;4.10;;;10.30;84.50;;;;;;5095852;28;20027;-71
2021/01/23 03:07:14;;;;;;;7.90;3.60;;;10.30;84.10;;;;;;5095487;28;20419;-71
2021/01/23 03:09:40;;;;;;;8.13;3.55;;;10.30;84.30;;;;;;5095576;28;20028;-73
2021/01/23 03:12:06;;;;;;;7.13;3.30;;;10.30;84.20;;;;;;5096878;28;20065;-72
2021/01/23 03:14:34;;;;;;;6.60;3.10;;;10.30;83.80;;;;;;5096219;28;20028;-70
2021/01/23 03:16:59;;;;;;;9.85;3.50;;;10.30;84.30;;;;;;5095506;28;20028;-70
2021/01/23 03:19:25;;;;;;;7.60;3.60;;;10.30;83.90;;;;;;5096740;28;20111;-71
2021/01/23 03:21:52;;;;;;;8.98;3.40;;;10.30;83.90;;;;;;5096089;28;20030;-71
2021/01/23 03:24:19;;;;;;;11.35;4.47;;;10.30;83.70;;;;;;5096668;28;20020;-70
2021/01/23 03:26:45;;;;;;;9.40;3.92;;;10.20;84.10;;;;;;5094957;28;20062;-70
2021/01/23 03:29:11;;;;;;;7.28;3.70;;;10.30;83.70;;;;;;5096812;28;20107;-72
2021/01/23 03:31:37;;;;;;;8.32;3.83;;;10.20;83.90;;;;;;5095955;28;20166;-70
2021/01/23 03:34:03;;;;;;;8.82;4.07;;;10.20;84.00;;;;;;5095917;28;20020;-72
2021/01/23 03:36:29;;;;;;;10.07;3.85;;;10.20;84.60;;;;;;5096662;28;20103;-71
2021/01/23 03:38:56;;;;;;;12.13;3.80;;;10.10;85.20;;;;;;5096362;28;20093;-72
2021/01/23 03:41:22;;;;;;;6.03;3.50;;;10.00;85.70;;;;;;5094676;28;20119;-71
2021/01/23 03:43:48;;;;;;;6.00;2.58;;;10.00;86.10;;;;;;5096214;28;20122;-74
2021/01/23 03:46:14;;;;;;;7.18;3.28;;;9.90;86.20;;;;;;5094586;28;20111;-71
2021/01/23 03:48:39;;;;;;;7.28;2.80;;;9.90;86.60;;;;;;5095914;28;20031;-71
2021/01/23 03:51:06;;;;;;;6.00;2.65;;;9.90;86.90;;;;;;5094795;28;20035;-70
2021/01/23 03:53:32;;;;;;;8.65;3.22;;;9.90;86.60;;;;;;5094852;28;20115;-70
2021/01/23 03:55:58;;;;;;;7.20;3.80;;;9.80;86.60;;;;;;5095750;28;20107;-70
2021/01/23 03:58:24;;;;;;;8.98;3.90;;;9.80;86.50;;;;;;5094947;28;20032;-69
2021/01/23 04:00:49;;;;;;;7.45;4.18;;;9.80;86.40;;;;;;5094261;28;20550;-70
2021/01/23 04:03:15;;;;;;;9.60;4.18;;;9.80;86.30;;;;;;5094448;28;20056;-70
2021/01/23 04:05:41;;;;;;;8.20;4.25;;;9.80;86.30;;;;;;5094857;28;20028;-72
2021/01/23 04:08:07;;;;;;;11.30;8.55;;;9.70;86.10;;;;;;5095048;28;20056;-69
2021/01/23 04:10:34;;;;;;;15.00;8.98;;;9.80;86.10;;;;;;5093991;28;20515;-70
2021/01/23 04:13:00;;;;;;;7.93;4.40;;;9.80;85.90;;;;;;5096069;28;20054;-72
2021/01/23 04:15:26;;;;;;;11.65;3.13;;;9.80;85.00;;;;;;5094323;28;20024;-70
2021/01/23 04:17:52;;;;;;;8.52;3.60;;;9.90;85.00;;;;;;5094081;28;20110;-69
2021/01/23 04:20:19;;;;;;;9.18;4.45;;;9.90;85.00;;;;;;5094815;28;20059;-70
2021/01/23 04:22:45;;;;;;;9.15;4.65;;;9.90;84.60;;;;;;5094383;28;20074;-70
2021/01/23 04:25:11;;;;;;;10.30;4.10;;;9.90;84.50;;;;;;5094165;28;20028;-69
2021/01/23 04:27:37;;;;;;;10.13;4.70;;;9.90;84.50;;;;;;5095032;28;20028;-71
2021/01/23 04:30:05;;;;;;;6.80;3.22;;;10.00;84.20;;;;;;5093452;28;20036;-71
2021/01/23 04:32:30;;;;;;;18.95;8.95;;;10.00;83.70;;;;;;5095289;28;20116;-71
2021/01/23 04:34:57;;;;;;;16.30;7.38;;;10.00;84.00;;;;;;5094242;28;20107;-68
2021/01/23 04:37:22;;;;;;;11.10;4.82;;;10.00;83.90;;;;;;5093679;28;20028;-70
2021/01/23 04:39:48;;;;;;;9.38;4.07;;;10.00;84.10;;;;;;5094896;28;20047;-68
2021/01/23 04:42:14;;;;;;;7.93;3.30;;;10.00;84.00;;;;;;5094126;28;20422;-70
2021/01/23 04:44:40;;;;;;;6.80;2.97;;;10.00;83.60;;;;;;5093529;28;20020;-69
2021/01/23 04:47:06;;;;;;;9.55;3.45;;;10.10;83.60;;;;;;5094781;28;20385;-68
2021/01/23 04:49:33;;;;;;;8.45;3.55;;;10.00;83.70;;;;;;5095278;28;20024;-69
2021/01/23 04:52:05;;;;;;;10.20;5.97;;;10.10;83.30;;;;;;5093334;28;20036;-69
2021/01/23 04:54:34;;;;;;;12.18;3.97;;;10.10;83.50;;;;;;5093479;28;20031;-68
2021/01/23 04:57:00;;;;;;;11.77;6.03;;;10.10;83.30;;;;;;5094876;28;20465;-68
2021/01/23 04:59:26;;;;;;;19.08;10.50;;;10.10;82.90;;;;;;5093107;28;20044;-71
2021/01/23 05:02:12;;;;;;;18.92;9.45;;;10.10;82.60;;;;;;5094995;28;20415;-68
2021/01/23 05:04:46;;;;;;;30.90;15.70;;;10.20;82.00;;;;;;5093215;28;20024;-70
2021/01/23 05:07:22;;;;;;;26.48;11.38;;;10.30;81.90;;;;;;5094686;28;20054;-68
2021/01/23 05:09:48;;;;;;;169.52;74.38;;;10.30;81.60;;;;;;5094582;28;20032;-69
2021/01/23 05:12:37;;;;;;;138.63;66.43;;;10.30;81.60;;;;;;5093177;28;20103;-72
2021/01/23 05:15:06;;;;;;;52.85;26.00;;;10.30;81.70;;;;;;5094012;28;20392;-71
2021/01/23 05:17:44;;;;;;;41.15;21.13;;;10.20;82.30;;;;;;5094387;28;20063;-71
2021/01/23 05:20:10;;;;;;;16.23;7.47;;;10.20;82.50;;;;;;5093137;28;20024;-72
2021/01/23 05:22:48;;;;;;;65.07;32.72;;;10.10;82.80;;;;;;5094417;28;20028;-70
2021/01/23 05:25:14;;;;;;;19.23;9.50;;;10.10;82.30;;;;;;5093124;28;20020;-70
2021/01/23 05:27:45;;;;;;;35.33;16.33;;;10.10;83.10;;;;;;5092796;28;20035;-71
2021/01/23 05:30:11;;;;;;;85.70;41.85;;;10.10;82.50;;;;;;5092856;28;20040;-69
2021/01/23 05:32:37;;;;;;;173.68;79.63;;;10.10;83.00;;;;;;5093947;28;20099;-69
2021/01/23 05:35:13;;;;;;;38.88;16.42;;;10.00;83.20;;;;;;5094223;28;20111;-68
2021/01/23 05:37:39;;;;;;;42.53;19.85;;;10.00;83.40;;;;;;5094446;28;20457;-70
2021/01/23 05:40:06;;;;;;;24.25;11.15;;;10.00;83.20;;;;;;5093788;28;20423;-69
2021/01/23 05:42:41;;;;;;;111.35;51.42;;;9.90;83.50;;;;;;5075810;28;20039;-70
2021/01/23 05:45:14;;;;;;;61.33;27.80;;;9.90;83.50;;;;;;5094129;28;20461;-68
2021/01/23 05:47:40;;;;;;;84.20;38.97;;;9.90;83.40;;;;;;5092459;28;20377;-69
2021/01/23 05:50:10;;;;;;;45.22;21.75;;;9.90;83.50;;;;;;5092656;28;20081;-71
2021/01/23 05:52:36;;;;;;;70.68;35.35;;;9.90;83.30;;;;;;5093950;28;20465;-69
2021/01/23 05:55:03;;;;;;;27.35;13.88;;;9.90;83.00;;;;;;5093628;28;20039;-72
2021/01/23 05:57:29;;;;;;;49.13;25.65;;;9.90;82.90;;;;;;5093847;28;20024;-69
2021/01/23 05:59:55;;;;;;;91.75;48.63;;;10.00;82.50;;;;;;5092193;28;20052;-72
2021/01/23 06:02:22;;;;;;;71.45;38.13;;;10.00;82.40;;;;;;5092283;28;20027;-70
2021/01/23 06:04:52;;;;;;;58.70;33.75;;;10.00;82.10;;;;;;5093562;28;20024;-70
2021/01/23 06:07:40;;;;;;;31.92;17.65;;;10.10;81.60;;;;;;5093778;28;20086;-70
2021/01/23 06:10:26;;;;;;;28.77;16.50;;;10.10;81.60;;;;;;5092387;28;20178;-69
2021/01/23 06:12:53;;;;;;;31.63;18.98;;;10.10;81.60;;;;;;5092317;28;20445;-69
2021/01/23 06:15:38;;;;;;;37.10;25.02;;;10.00;82.30;;;;;;5092180;28;20373;-70
2021/01/23 06:18:22;;;;;;;18.60;10.48;;;10.00;82.20;;;;;;5093685;28;20069;-71
2021/01/23 06:20:50;;;;;;;61.27;39.00;;;10.00;82.90;;;;;;5092452;28;20417;-72
2021/01/23 06:23:20;;;;;;;25.20;14.80;;;9.90;82.90;;;;;;5095380;28;20028;-70
2021/01/23 06:25:49;;;;;;;30.48;18.20;;;9.90;82.90;;;;;;5096500;28;20050;-69
2021/01/23 06:28:41;;;;;;;40.38;24.38;;;9.90;82.70;;;;;;5096618;28;20169;-70
2021/01/23 06:31:22;;;;;;;26.92;14.32;;;9.90;83.10;;;;;;5085386;28;20040;-70
2021/01/23 06:33:51;;;;;;;18.75;10.90;;;9.90;82.90;;;;;;5096279;28;20020;-71
2021/01/23 06:36:18;;;;;;;28.42;18.00;;;9.80;83.20;;;;;;5095958;28;20028;-70
2021/01/23 06:39:09;;;;;;;35.30;23.05;;;9.90;82.80;;;;;;5096242;28;20024;-70
2021/01/23 06:41:36;;;;;;;21.25;13.35;;;9.90;82.80;;;;;;5096138;28;20508;-72
2021/01/23 06:44:19;;;;;;;22.98;8.98;;;9.90;82.90;;;;;;5097138;28;20024;-68
2021/01/23 06:46:51;;;;;;;32.75;14.18;;;9.80;83.00;;;;;;5097418;28;20093;-69
2021/01/23 06:49:17;;;;;;;34.13;15.05;;;9.80;82.70;;;;;;5096035;28;20059;-70
2021/01/23 06:51:43;;;;;;;30.10;13.52;;;9.80;83.30;;;;;;5096665;28;20063;-71
2021/01/23 06:54:19;;;;;;;25.95;12.63;;;9.80;82.40;;;;;;5097280;28;20028;-70
2021/01/23 06:56:52;;;;;;;26.25;12.88;;;9.80;82.90;;;;;;5095930;28;20024;-69
2021/01/23 06:59:25;;;;;;;23.13;10.85;;;9.90;82.40;;;;;;5097190;28;20079;-69
2021/01/23 07:02:03;;;;;;;38.00;20.98;;;9.90;82.40;;;;;;5096874;28;20081;-72
2021/01/23 07:04:30;;;;;;;20.50;10.27;;;9.80;82.80;;;;;;5095457;28;20499;-70
2021/01/23 07:06:57;;;;;;;18.08;9.05;;;9.80;82.30;;;;;;5096256;28;20059;-73
2021/01/23 07:09:49;;;;;;;19.00;8.30;;;9.80;82.10;;;;;;5095440;28;20036;-71
2021/01/23 07:12:43;;;;;;;16.30;8.55;;;9.80;82.40;;;;;;5094848;28;20032;-69
2021/01/23 07:15:10;;;;;;;13.90;6.57;;;9.80;83.00;;;;;;5094965;28;20032;-70
2021/01/23 07:17:37;;;;;;;14.18;7.35;;;9.80;83.20;;;;;;5095200;28;20024;-72
2021/01/23 07:20:14;;;;;;;18.55;7.47;;;9.70;83.10;;;;;;5096804;28;20031;-70
2021/01/23 07:22:41;;;;;;;24.45;8.70;;;9.70;83.40;;;;;;5095674;28;20024;-72
2021/01/23 07:25:12;;;;;;;26.20;11.18;;;9.70;83.30;;;;;;5095445;28;20423;-70
2021/01/23 07:27:40;;;;;;;25.88;11.23;;;9.80;82.70;;;;;;5095367;28;20062;-72
2021/01/23 07:30:16;;;;;;;23.88;10.13;;;9.90;82.30;;;;;;5095194;28;20036;-70
2021/01/23 07:32:44;;;;;;;22.80;10.25;;;10.00;81.10;;;;;;5095343;28;20020;-71
2021/01/23 07:35:11;;;;;;;24.15;10.38;;;10.00;81.40;;;;;;5094576;28;20024;-72
2021/01/23 07:38:00;;;;;;;25.73;11.05;;;10.00;80.90;;;;;;5095134;28;20062;-71
2021/01/23 07:40:31;;;;;;;26.35;13.00;;;10.10;80.40;;;;;;5080167;28;20035;-71
2021/01/23 07:43:04;;;;;;;27.40;12.00;;;10.10;80.40;;;;;;5093152;28;20047;-74
2021/01/23 07:45:30;;;;;;;30.02;12.80;;;10.10;80.30;;;;;;5089995;28;20036;-71
2021/01/23 07:48:01;;;;;;;29.35;13.73;;;10.10;80.50;;;;;;5093873;28;20048;-69
2021/01/23 07:50:38;;;;;;;29.10;13.50;;;10.10;80.50;;;;;;5093621;28;20492;-73
2021/01/23 07:53:17;;;;;;;26.73;14.63;;;10.20;80.30;;;;;;5091528;28;20024;-73
2021/01/23 07:55:44;;;;;;;27.45;15.48;;;10.20;80.10;;;;;;5093096;28;20032;-72
2021/01/23 07:58:10;;;;;;;29.35;17.38;;;10.20;80.00;;;;;;5093313;28;20032;-71
2021/01/23 08:00:37;;;;;;;46.85;28.80;;;10.20;79.90;;;;;;5090052;28;20409;-73
2021/01/23 08:03:04;;;;;;;32.83;16.10;;;10.30;80.20;;;;;;5093291;28;20107;-72
2021/01/23 08:05:50;;;;;;;22.75;13.38;;;10.20;80.20;;;;;;5095192;28;20027;-70
2021/01/23 08:08:36;;;;;;;25.35;12.07;;;10.30;79.50;;;;;;5094147;28;20034;-71
2021/01/23 08:11:03;;;;;;;25.27;11.73;;;10.40;78.90;;;;;;5093716;28;20046;-73
2021/01/23 08:13:31;;;;;;;20.67;11.02;;;10.40;78.30;;;;;;5094427;28;20035;-73
2021/01/23 08:16:14;;;;;;;31.85;17.08;;;10.50;78.50;;;;;;5094349;28;20073;-73
2021/01/23 08:18:42;;;;;;;21.70;9.50;;;10.50;78.20;;;;;;5094696;28;20473;-71
2021/01/23 08:21:18;;;;;;;24.50;12.82;;;10.50;77.10;;;;;;5095227;28;20077;-73
2021/01/23 08:23:44;;;;;;;28.25;13.38;;;10.60;77.60;;;;;;5095504;28;20062;-72
2021/01/23 08:26:10;;;;;;;38.67;20.75;;;10.60;77.50;;;;;;5095474;28;20028;-71
2021/01/23 08:28:37;;;;;;;36.10;17.73;;;10.50;78.00;;;;;;5094824;28;20035;-71
2021/01/23 08:31:21;;;;;;;29.25;13.77;;;10.50;78.30;;;;;;5094772;28;20032;-74
2021/01/23 08:33:52;;;;;;;36.03;17.83;;;10.60;77.60;;;;;;5090493;28;20462;-73
2021/01/23 08:36:19;;;;;;;25.02;12.25;;;10.60;77.70;;;;;;5092277;28;20385;-71
2021/01/23 08:38:46;;;;;;;45.80;20.52;;;10.60;77.70;;;;;;5092441;28;20543;-72
2021/01/23 08:41:11;;;;;;;81.10;33.75;;;10.60;77.80;;;;;;5093195;28;20031;-73
2021/01/23 08:43:37;;;;;;;44.22;19.17;;;10.60;77.80;;;;;;5093105;28;20461;-73
2021/01/23 08:46:03;;;;;;;67.78;28.73;;;10.60;77.60;;;;;;5095300;28;20465;-71
2021/01/23 08:48:29;;;;;;;155.73;57.00;;;10.60;77.40;;;;;;5094704;28;20024;-74
2021/01/23 08:50:54;;;;;;;128.52;50.30;;;10.60;78.10;;;;;;5093592;28;20040;-73
2021/01/23 08:53:20;;;;;;;56.45;24.45;;;10.70;77.00;;;;;;5093592;28;20024;-70
2021/01/23 08:55:46;;;;;;;50.10;22.63;;;10.80;76.80;;;;;;5093289;28;20104;-72
2021/01/23 08:58:12;;;;;;;85.82;35.30;;;10.70;76.60;;;;;;5094797;28;20440;-72
2021/01/23 09:00:37;;;;;;;46.10;20.38;;;10.80;76.70;;;;;;5095362;28;20056;-73
2021/01/23 09:03:04;;;;;;;45.25;20.08;;;10.80;76.10;;;;;;5094736;28;20078;-72
2021/01/23 09:05:30;;;;;;;51.42;22.30;;;10.80;77.40;;;;;;5093468;28;20089;-71
2021/01/23 09:07:56;;;;;;;71.18;33.72;;;10.80;76.90;;;;;;5094677;28;20016;-72
2021/01/23 09:10:21;;;;;;;97.45;43.28;;;10.80;76.50;;;;;;5093024;28;20063;-70
2021/01/23 09:12:48;;;;;;;35.65;16.20;;;10.80;76.80;;;;;;5093300;28;20060;-71
2021/01/23 09:15:14;;;;;;;50.03;24.33;;;10.90;76.90;;;;;;5094499;28;20090;-73
2021/01/23 09:17:40;;;;;;;43.75;19.55;;;10.90;76.30;;;;;;5092331;28;20028;-73
2021/01/23 09:20:08;;;;;;;178.70;67.25;;;10.90;76.80;;;;;;5091801;28;20031;-71
2021/01/23 09:22:34;;;;;;;198.93;74.95;;;10.90;76.10;;;;;;5092134;28;20077;-73
2021/01/23 09:24:59;;;;;;;131.43;54.38;;;10.90;76.60;;;;;;5094104;28;20385;-74
2021/01/23 09:27:26;;;;;;;124.10;54.78;;;10.90;75.90;;;;;;5092985;28;20040;-72
2021/01/23 09:29:53;;;;;;;110.50;47.92;;;10.90;76.20;;;;;;5093744;28;20355;-72
2021/01/23 09:32:20;;;;;;;109.25;43.95;;;10.90;76.50;;;;;;5092727;28;20028;-72
2021/01/23 09:34:46;;;;;;;52.95;21.00;;;10.90;76.20;;;;;;5094228;28;20111;-73
2021/01/23 09:37:12;;;;;;;44.95;18.20;;;10.90;76.90;;;;;;5093903;28;20103;-73
2021/01/23 09:39:38;;;;;;;87.65;36.17;;;10.90;76.40;;;;;;5094081;28;20034;-72
2021/01/23 09:42:04;;;;;;;32.00;14.13;;;11.00;76.30;;;;;;5092898;28;20090;-73
2021/01/23 09:44:29;;;;;;;101.32;42.72;;;11.00;76.00;;;;;;5093533;28;20473;-72
2021/01/23 09:46:55;;;;;;;40.80;19.70;;;11.00;75.20;;;;;;5093812;28;20039;-71
2021/01/23 09:49:21;;;;;;;58.85;25.40;;;11.00;76.10;;;;;;5092429;28;20374;-75
2021/01/23 09:51:48;;;;;;;129.98;52.92;;;11.00;76.60;;;;;;5092358;28;20032;-73
2021/01/23 09:54:13;;;;;;;134.32;57.05;;;11.00;76.30;;;;;;5092645;28;20468;-73
2021/01/23 09:56:39;;;;;;;101.15;44.53;;;11.00;75.50;;;;;;5092583;28;20028;-72
2021/01/23 09:59:05;;;;;;;66.97;33.90;;;11.00;76.00;;;;;;5091746;28;20063;-72
2021/01/23 10:01:31;;;;;;;75.75;40.70;;;11.10;75.20;;;;;;5092547;28;20028;-74
2021/01/23 10:03:56;;;;;;;53.85;28.75;;;11.10;75.40;;;;;;5092858;28;20112;-71
2021/01/23 10:06:23;;;;;;;41.78;21.02;;;11.10;75.90;;;;;;5092262;28;20472;-71
2021/01/23 10:08:49;;;;;;;79.85;45.60;;;11.00;76.00;;;;;;5092493;28;20028;-71
2021/01/23 10:11:14;;;;;;;45.25;25.55;;;11.10;76.40;;;;;;5093364;28;20094;-72
2021/01/23 10:13:40;;;;;;;44.25;22.63;;;11.10;76.00;;;;;;5092434;28;20123;-72
2021/01/23 10:16:06;;;;;;;44.15;25.30;;;11.00;76.10;;;;;;5093746;28;20028;-71
2021/01/23 10:18:35;;;;;;;37.40;21.48;;;11.00;75.90;;;;;;5092320;28;20024;-72
2021/01/23 10:21:08;;;;;;;51.78;29.63;;;11.00;76.40;;;;;;5092069;28;20035;-69
2021/01/23 10:23:34;;;;;;;21.38;11.43;;;11.00;78.80;;;;;;5092063;28;20035;-69
2021/01/23 10:26:00;;;;;;;31.88;17.83;;;11.10;76.10;;;;;;5092251;28;20028;-70
2021/01/23 10:28:26;;;;;;;56.40;30.35;;;11.10;76.60;;;;;;5092026;28;20063;-71
2021/01/23 10:30:52;;;;;;;55.67;29.40;;;11.10;76.70;;;;;;5092579;28;20510;-74
2021/01/23 10:33:18;;;;;;;65.38;36.90;;;11.10;76.50;;;;;;5092304;28;20054;-70
2021/01/23 10:35:44;;;;;;;63.72;35.67;;;11.20;76.50;;;;;;5092340;28;20036;-71
2021/01/23 10:38:10;;;;;;;63.42;32.97;;;11.20;77.00;;;;;;5092539;28;20035;-68
2021/01/23 10:40:36;;;;;;;75.38;41.72;;;11.30;77.10;;;;;;5092827;28;20050;-72
2021/01/23 10:43:02;;;;;;;54.38;28.00;;;11.30;76.80;;;;;;5092185;28;20028;-69
2021/01/23 10:45:27;;;;;;;33.47;16.35;;;11.40;76.10;;;;;;5091732;28;20496;-70
2021/01/23 10:47:53;;;;;;;26.95;13.80;;;11.40;76.90;;;;;;5090505;28;20024;-72
2021/01/23 10:50:19;;;;;;;41.88;26.10;;;11.50;75.60;;;;;;5091534;28;20528;-70
2021/01/23 10:52:46;;;;;;;42.30;23.40;;;11.50;75.70;;;;;;5091794;28;20031;-70
2021/01/23 10:55:12;;;;;;;33.83;19.15;;;11.60;75.50;;;;;;5091515;28;20020;-70
2021/01/23 10:57:38;;;;;;;36.80;17.98;;;11.70;75.80;;;;;;5093354;28;20031;-70
2021/01/23 11:00:07;;;;;;;42.17;24.83;;;11.70;75.60;;;;;;5093197;28;20056;-72
2021/01/23 11:02:40;;;;;;;45.10;23.35;;;11.80;76.20;;;;;;5092571;28;20037;-72
2021/01/23 11:05:09;;;;;;;43.00;20.58;;;11.90;75.20;;;;;;5092329;28;20390;-71
2021/01/23 11:07:35;;;;;;;39.45;18.45;;;12.00;76.20;;;;;;5093167;28;20020;-70
2021/01/23 11:10:01;;;;;;;30.00;14.65;;;12.10;75.50;;;;;;5093535;28;20116;-70
2021/01/23 11:12:27;;;;;;;34.00;16.50;;;12.10;75.00;;;;;;5096482;28;20071;-71
2021/01/23 11:14:53;;;;;;;52.33;29.10;;;12.20;74.20;;;;;;5095414;28;20074;-70
2021/01/23 11:17:18;;;;;;;39.85;20.05;;;12.30;74.10;;;;;;5095174;28;20114;-71
2021/01/23 11:19:44;;;;;;;27.98;14.73;;;12.40;74.00;;;;;;5095408;28;20024;-70
2021/01/23 11:22:10;;;;;;;60.78;29.60;;;12.50;72.00;;;;;;5096396;28;20111;-72
2021/01/23 11:24:35;;;;;;;49.28;24.05;;;12.50;72.20;;;;;;5095005;28;20028;-69
2021/01/23 11:27:01;;;;;;;67.10;31.55;;;12.60;72.40;;;;;;5095002;28;20031;-72
2021/01/23 11:29:27;;;;;;;40.65;20.02;;;12.60;72.30;;;;;;5093385;28;20028;-70
2021/01/23 11:31:53;;;;;;;43.42;21.70;;;12.60;72.20;;;;;;5094184;28;20064;-72
2021/01/23 11:34:18;;;;;;;46.55;24.52;;;12.60;72.10;;;;;;5093740;28;20462;-71
2021/01/23 11:36:45;;;;;;;49.80;25.30;;;12.70;72.10;;;;;;5094774;28;20020;-72
2021/01/23 11:39:10;;;;;;;50.50;23.70;;;12.80;72.50;;;;;;5093687;28;20031;-72
2021/01/23 11:41:36;;;;;;;27.00;13.68;;;12.80;73.20;;;;;;5095652;28;20028;-70
2021/01/23 11:44:02;;;;;;;35.58;19.70;;;12.80;70.90;;;;;;5096025;28;20027;-71
2021/01/23 11:46:28;;;;;;;22.63;12.60;;;12.80;70.50;;;;;;5096059;28;20024;-72
2021/01/23 11:48:54;;;;;;;31.70;17.05;;;12.80;70.10;;;;;;5094868;28;20518;-70
2021/01/23 11:51:20;;;;;;;28.38;14.20;;;12.80;70.90;;;;;;5093284;28;20050;-72
2021/01/23 11:53:45;;;;;;;30.00;14.27;;;12.80;71.10;;;;;;5093421;28;20110;-74
2021/01/23 11:56:11;;;;;;;26.60;15.27;;;12.80;70.90;;;;;;5093503;28;20020;-73
2021/01/23 11:58:37;;;;;;;49.60;25.70;;;12.80;71.80;;;;;;5093317;28;20119;-74
2021/01/23 12:01:03;;;;;;;102.97;57.65;;;12.70;72.20;;;;;;5094359;28;20036;-72
2021/01/23 12:03:28;;;;;;;53.17;26.15;;;12.70;72.30;;;;;;5094279;28;20020;-71
2021/01/23 12:05:54;;;;;;;19.40;10.30;;;12.70;72.20;;;;;;5092897;28;20020;-71
2021/01/23 12:08:20;;;;;;;37.42;20.40;;;12.70;71.80;;;;;;5093164;28;20024;-71
2021/01/23 12:10:46;;;;;;;48.47;27.90;;;12.70;72.20;;;;;;5093235;28;20028;-71
2021/01/23 12:13:12;;;;;;;62.78;36.70;;;12.70;71.50;;;;;;5094203;28;20416;-69
2021/01/23 12:15:37;;;;;;;28.15;15.15;;;12.70;72.60;;;;;;5094154;28;20027;-69
2021/01/23 12:18:03;;;;;;;25.65;12.05;;;12.70;71.70;;;;;;5095344;28;20077;-70
2021/01/23 12:20:30;;;;;;;45.70;31.25;;;12.70;71.30;;;;;;5094963;28;20112;-71
2021/01/23 12:22:56;;;;;;;30.92;17.27;;;12.70;71.80;;;;;;5094320;28;20115;-71
2021/01/23 12:25:22;;;;;;;20.38;10.25;;;12.80;73.10;;;;;;5095512;28;20426;-71
2021/01/23 12:27:47;;;;;;;20.08;13.18;;;12.80;71.90;;;;;;5093884;28;20491;-69
2021/01/23 12:30:15;;;;;;;29.15;13.93;;;12.80;72.40;;;;;;5094057;28;20024;-70
2021/01/23 12:32:41;;;;;;;29.55;21.00;;;12.80;72.30;;;;;;5094156;28;20024;-70
2021/01/23 12:35:09;;;;;;;20.85;11.68;;;12.80;72.70;;;;;;5093693;28;20107;-69
2021/01/23 12:37:37;;;;;;;27.15;17.23;;;12.80;72.00;;;;;;5093952;28;20042;-70
2021/01/23 12:40:05;;;;;;;19.08;11.27;;;12.80;71.70;;;;;;5093613;28;20020;-68